sensor_id;sensor_type;location;lat;lon;timestamp;pressure;altitude;pressure_sealevel;temperature;humidity
40994;BME280;26722;43.212;27.932;2023-07-20T00:01:03;54900.75;;;-146.72;73.17
40994;BME280;26722;43.212;27.932;2023-07-20T00:03:28;54896.53;;;-146.72;73.77
40994;BME280;26722;43.212;27.932;2023-07-20T00:05:54;54890.19;;;-146.72;73.87
40994;BME280;26722;43.212;27.932;2023-07-20T00:08:19;54902.84;;;-146.72;73.29
40994;BME280;26722;43.212;27.932;2023-07-20T00:10:44;54898.63;;;-146.72;73.25
40994;BME280;26722;43.212;27.932;2023-07-20T00:13:10;54904.97;;;-146.72;72.59
40994;BME280;26722;43.212;27.932;2023-07-20T00:15:36;54900.75;;;-146.72;71.61
40994;BME280;26722;43.212;27.932;2023-07-20T00:18:02;54896.53;;;-146.72;71.34
40994;BME280;26722;43.212;27.932;2023-07-20T00:20:28;54896.53;;;-146.72;70.98
40994;BME280;26722;43.212;27.932;2023-07-20T00:22:53;54900.75;;;-146.72;70.80
40994;BME280;26722;43.212;27.932;2023-07-20T00:25:19;54900.75;;;-146.72;70.97
40994;BME280;26722;43.212;27.932;2023-07-20T00:27:45;54909.19;;;-146.72;71.37
40994;BME280;26722;43.212;27.932;2023-07-20T00:30:10;54904.97;;;-146.72;71.59
40994;BME280;26722;43.212;27.932;2023-07-20T00:32:36;54900.75;;;-146.72;71.79
40994;BME280;26722;43.212;27.932;2023-07-20T00:35:01;54902.84;;;-146.72;71.28
40994;BME280;26722;43.212;27.932;2023-07-20T00:37:26;54900.75;;;-146.72;71.82
40994;BME280;26722;43.212;27.932;2023-07-20T00:39:52;54915.53;;;-146.72;71.32
40994;BME280;26722;43.212;27.932;2023-07-20T00:42:18;54911.31;;;-146.72;69.36
40994;BME280;26722;43.212;27.932;2023-07-20T00:44:43;54898.63;;;-146.72;69.82
40994;BME280;26722;43.212;27.932;2023-07-20T00:47:08;54902.84;;;-146.72;69.99
40994;BME280;26722;43.212;27.932;2023-07-20T00:49:34;54911.31;;;-146.72;70.03
40994;BME280;26722;43.212;27.932;2023-07-20T00:52:00;54900.75;;;-146.72;70.37
40994;BME280;26722;43.212;27.932;2023-07-20T00:54:26;54909.19;;;-146.72;69.65
40994;BME280;26722;43.212;27.932;2023-07-20T00:56:52;54904.97;;;-146.72;67.36
40994;BME280;26722;43.212;27.932;2023-07-20T00:59:18;54913.41;;;-146.72;67.59
40994;BME280;26722;43.212;27.932;2023-07-20T01:01:43;54915.53;;;-146.72;67.10
40994;BME280;26722;43.212;27.932;2023-07-20T01:04:08;54917.63;;;-146.72;67.16
40994;BME280;26722;43.212;27.932;2023-07-20T01:09:19;54917.63;;;-146.72;66.63
40994;BME280;26722;43.212;27.932;2023-07-20T01:14:27;54917.63;;;-146.72;66.60
40994;BME280;26722;43.212;27.932;2023-07-20T01:16:52;54909.19;;;-146.72;66.35
40994;BME280;26722;43.212;27.932;2023-07-20T01:19:17;54909.19;;;-146.72;66.46
40994;BME280;26722;43.212;27.932;2023-07-20T01:22:02;54921.88;;;-146.72;65.95
40994;BME280;26722;43.212;27.932;2023-07-20T01:26:59;54917.63;;;-146.72;65.01
40994;BME280;26722;43.212;27.932;2023-07-20T01:31:54;54917.63;;;-146.72;64.08
40994;BME280;26722;43.212;27.932;2023-07-20T01:34:21;54915.53;;;-146.72;64.19
40994;BME280;26722;43.212;27.932;2023-07-20T01:36:47;54917.63;;;-146.72;63.19
40994;BME280;26722;43.212;27.932;2023-07-20T01:39:13;54921.88;;;-146.72;62.65
40994;BME280;26722;43.212;27.932;2023-07-20T01:41:39;54907.09;;;-146.72;62.57
40994;BME280;26722;43.212;27.932;2023-07-20T01:44:05;54921.88;;;-146.72;63.12
40994;BME280;26722;43.212;27.932;2023-07-20T01:46:30;54915.53;;;-146.72;63.42
40994;BME280;26722;43.212;27.932;2023-07-20T01:48:55;54923.97;;;-146.72;65.06
40994;BME280;26722;43.212;27.932;2023-07-20T01:51:21;54923.97;;;-146.72;67.03
40994;BME280;26722;43.212;27.932;2023-07-20T01:53:46;54911.31;;;-146.72;72.05
40994;BME280;26722;43.212;27.932;2023-07-20T01:56:11;54932.41;;;-146.72;76.49
40994;BME280;26722;43.212;27.932;2023-07-20T01:58:37;54940.88;;;-146.72;78.87
40994;BME280;26722;43.212;27.932;2023-07-20T02:01:02;54951.41;;;-146.72;80.82
40994;BME280;26722;43.212;27.932;2023-07-20T02:03:28;54947.19;;;-146.72;82.13
40994;BME280;26722;43.212;27.932;2023-07-20T02:05:53;54942.97;;;-146.72;82.44
40994;BME280;26722;43.212;27.932;2023-07-20T02:08:18;54942.97;;;-146.72;82.35
40994;BME280;26722;43.212;27.932;2023-07-20T02:10:47;54953.53;;;-146.72;82.91
40994;BME280;26722;43.212;27.932;2023-07-20T02:13:12;54940.88;;;-146.72;82.97
40994;BME280;26722;43.212;27.932;2023-07-20T02:15:38;54955.63;;;-146.72;81.85
40994;BME280;26722;43.212;27.932;2023-07-20T02:18:03;54940.88;;;-146.72;81.19
40994;BME280;26722;43.212;27.932;2023-07-20T02:20:28;54942.97;;;-146.72;79.83
40994;BME280;26722;43.212;27.932;2023-07-20T02:22:54;54951.41;;;-146.72;76.14
40994;BME280;26722;43.212;27.932;2023-07-20T02:25:19;54938.75;;;-146.72;74.35
40994;BME280;26722;43.212;27.932;2023-07-20T02:27:45;54953.53;;;-146.72;73.54
40994;BME280;26722;43.212;27.932;2023-07-20T02:30:10;54949.31;;;-146.72;72.27
40994;BME280;26722;43.212;27.932;2023-07-20T02:32:36;54934.53;;;-146.72;71.29
40994;BME280;26722;43.212;27.932;2023-07-20T02:35:01;54953.53;;;-146.72;70.57
40994;BME280;26722;43.212;27.932;2023-07-20T02:37:29;54930.31;;;-146.72;70.18
40994;BME280;26722;43.212;27.932;2023-07-20T02:39:54;54926.09;;;-146.72;70.16
40994;BME280;26722;43.212;27.932;2023-07-20T02:42:20;54932.41;;;-146.72;69.77
40994;BME280;26722;43.212;27.932;2023-07-20T02:44:47;54926.09;;;-146.72;69.53
40994;BME280;26722;43.212;27.932;2023-07-20T02:47:13;54928.19;;;-146.72;69.46
40994;BME280;26722;43.212;27.932;2023-07-20T02:49:38;54930.31;;;-146.72;69.21
40994;BME280;26722;43.212;27.932;2023-07-20T02:52:04;54934.53;;;-146.72;69.08
40994;BME280;26722;43.212;27.932;2023-07-20T02:54:29;54947.19;;;-146.72;69.32
40994;BME280;26722;43.212;27.932;2023-07-20T02:56:55;54932.41;;;-146.72;69.48
40994;BME280;26722;43.212;27.932;2023-07-20T02:59:21;54930.31;;;-146.72;70.35
40994;BME280;26722;43.212;27.932;2023-07-20T03:01:46;54915.53;;;-146.72;70.42
40994;BME280;26722;43.212;27.932;2023-07-20T03:04:11;54926.09;;;-146.72;70.21
40994;BME280;26722;43.212;27.932;2023-07-20T03:06:37;54923.97;;;-146.72;70.33
40994;BME280;26722;43.212;27.932;2023-07-20T03:09:02;54930.31;;;-146.72;70.21
40994;BME280;26722;43.212;27.932;2023-07-20T03:11:28;54923.97;;;-146.72;70.10
40994;BME280;26722;43.212;27.932;2023-07-20T03:13:53;54934.53;;;-146.72;69.43
40994;BME280;26722;43.212;27.932;2023-07-20T03:16:19;54932.41;;;-146.72;69.69
40994;BME280;26722;43.212;27.932;2023-07-20T03:18:44;54936.63;;;-146.72;69.95
40994;BME280;26722;43.212;27.932;2023-07-20T03:21:10;54936.63;;;-146.72;69.45
40994;BME280;26722;43.212;27.932;2023-07-20T03:23:39;54926.09;;;-146.72;69.20
40994;BME280;26722;43.212;27.932;2023-07-20T03:26:04;54923.97;;;-146.72;68.33
40994;BME280;26722;43.212;27.932;2023-07-20T03:28:30;54917.63;;;-146.72;66.87
40994;BME280;26722;43.212;27.932;2023-07-20T03:30:55;54917.63;;;-146.72;65.08
40994;BME280;26722;43.212;27.932;2023-07-20T03:33:21;54892.31;;;-146.72;63.35
40994;BME280;26722;43.212;27.932;2023-07-20T03:35:47;54900.75;;;-146.72;62.31
40994;BME280;26722;43.212;27.932;2023-07-20T03:38:12;54902.84;;;-146.72;61.52
40994;BME280;26722;43.212;27.932;2023-07-20T03:40:37;54902.84;;;-146.72;60.40
40994;BME280;26722;43.212;27.932;2023-07-20T03:43:03;54888.09;;;-146.72;57.45
40994;BME280;26722;43.212;27.932;2023-07-20T03:45:28;54892.31;;;-146.72;57.01
40994;BME280;26722;43.212;27.932;2023-07-20T03:47:53;54871.19;;;-146.72;55.48
40994;BME280;26722;43.212;27.932;2023-07-20T03:50:18;54860.63;;;-146.72;53.51
40994;BME280;26722;43.212;27.932;2023-07-20T03:52:44;54847.97;;;-146.72;52.81
40994;BME280;26722;43.212;27.932;2023-07-20T03:55:09;54854.31;;;-146.72;52.62
40994;BME280;26722;43.212;27.932;2023-07-20T03:57:35;54841.63;;;-146.72;51.91
40994;BME280;26722;43.212;27.932;2023-07-20T04:00:00;54833.19;;;-146.72;50.73
40994;BME280;26722;43.212;27.932;2023-07-20T04:02:25;54826.88;;;-146.72;50.06
40994;BME280;26722;43.212;27.932;2023-07-20T04:04:51;54820.53;;;-146.72;49.28
40994;BME280;26722;43.212;27.932;2023-07-20T04:07:16;54801.53;;;-146.72;48.81
40994;BME280;26722;43.212;27.932;2023-07-20T04:09:41;54801.53;;;-146.72;47.67
40994;BME280;26722;43.212;27.932;2023-07-20T04:12:07;54820.53;;;-146.72;47.62
40994;BME280;26722;43.212;27.932;2023-07-20T04:14:32;54820.53;;;-146.72;48.75
40994;BME280;26722;43.212;27.932;2023-07-20T04:16:57;54837.41;;;-146.72;48.78
40994;BME280;26722;43.212;27.932;2023-07-20T04:19:23;54841.63;;;-146.72;50.04
40994;BME280;26722;43.212;27.932;2023-07-20T04:21:48;54837.41;;;-146.72;50.90
40994;BME280;26722;43.212;27.932;2023-07-20T04:24:13;54847.97;;;-146.72;51.22
40994;BME280;26722;43.212;27.932;2023-07-20T04:26:38;54850.09;;;-146.72;51.51
40994;BME280;26722;43.212;27.932;2023-07-20T04:29:04;54854.31;;;-146.72;50.34
40994;BME280;26722;43.212;27.932;2023-07-20T04:31:29;54854.31;;;-146.72;50.65
40994;BME280;26722;43.212;27.932;2023-07-20T04:33:57;54866.97;;;-146.72;52.03
40994;BME280;26722;43.212;27.932;2023-07-20T04:36:22;54862.75;;;-146.72;51.53
40994;BME280;26722;43.212;27.932;2023-07-20T04:38:48;54856.41;;;-146.72;51.86
40994;BME280;26722;43.212;27.932;2023-07-20T04:41:13;54871.19;;;-146.72;51.88
40994;BME280;26722;43.212;27.932;2023-07-20T04:43:44;54871.19;;;-146.72;52.78
40994;BME280;26722;43.212;27.932;2023-07-20T04:46:10;54879.63;;;-146.72;53.27
40994;BME280;26722;43.212;27.932;2023-07-20T04:48:35;54875.41;;;-146.72;54.13
40994;BME280;26722;43.212;27.932;2023-07-20T04:51:01;54862.75;;;-146.72;53.59
40994;BME280;26722;43.212;27.932;2023-07-20T04:53:26;54871.19;;;-146.72;53.34
40994;BME280;26722;43.212;27.932;2023-07-20T04:55:51;54845.88;;;-146.72;52.41
40994;BME280;26722;43.212;27.932;2023-07-20T04:58:17;54837.41;;;-146.72;50.52
40994;BME280;26722;43.212;27.932;2023-07-20T05:00:43;54831.09;;;-146.72;50.09
40994;BME280;26722;43.212;27.932;2023-07-20T05:03:08;54828.97;;;-146.72;48.69
40994;BME280;26722;43.212;27.932;2023-07-20T05:05:34;54833.19;;;-146.72;47.69
40994;BME280;26722;43.212;27.932;2023-07-20T05:07:59;54824.75;;;-146.72;46.69
40994;BME280;26722;43.212;27.932;2023-07-20T05:10:24;54824.75;;;-146.72;46.65
40994;BME280;26722;43.212;27.932;2023-07-20T05:12:49;54820.53;;;-146.72;46.49
40994;BME280;26722;43.212;27.932;2023-07-20T05:15:15;54818.41;;;-146.72;46.23
40994;BME280;26722;43.212;27.932;2023-07-20T05:17:40;54824.75;;;-146.72;45.87
40994;BME280;26722;43.212;27.932;2023-07-20T05:20:05;54820.53;;;-146.72;46.06
40994;BME280;26722;43.212;27.932;2023-07-20T05:22:31;54833.19;;;-146.72;44.33
40994;BME280;26722;43.212;27.932;2023-07-20T05:24:56;54852.19;;;-146.72;46.61
40994;BME280;26722;43.212;27.932;2023-07-20T05:27:21;54850.09;;;-146.72;47.48
40994;BME280;26722;43.212;27.932;2023-07-20T05:29:47;54852.19;;;-146.72;47.34
40994;BME280;26722;43.212;27.932;2023-07-20T05:32:13;54862.75;;;-146.72;48.87
40994;BME280;26722;43.212;27.932;2023-07-20T05:34:38;54862.75;;;-146.72;49.37
40994;BME280;26722;43.212;27.932;2023-07-20T05:37:09;54850.09;;;-146.72;48.66
40994;BME280;26722;43.212;27.932;2023-07-20T05:39:34;54845.88;;;-146.72;48.34
40994;BME280;26722;43.212;27.932;2023-07-20T05:42:00;54833.19;;;-146.72;46.51
40994;BME280;26722;43.212;27.932;2023-07-20T05:44:25;54837.41;;;-146.72;46.83
40994;BME280;26722;43.212;27.932;2023-07-20T05:46:50;54826.88;;;-146.72;46.49
40994;BME280;26722;43.212;27.932;2023-07-20T05:49:15;54824.75;;;-146.72;46.63
40994;BME280;26722;43.212;27.932;2023-07-20T05:51:41;54843.75;;;-146.72;46.60
40994;BME280;26722;43.212;27.932;2023-07-20T05:54:06;54828.97;;;-146.72;47.99
40994;BME280;26722;43.212;27.932;2023-07-20T05:56:31;54828.97;;;-146.72;46.53
40994;BME280;26722;43.212;27.932;2023-07-20T05:58:57;54820.53;;;-146.72;45.71
40994;BME280;26722;43.212;27.932;2023-07-20T06:01:22;54809.97;;;-146.72;45.35
40994;BME280;26722;43.212;27.932;2023-07-20T06:03:47;54833.19;;;-146.72;44.55
40994;BME280;26722;43.212;27.932;2023-07-20T06:06:13;54828.97;;;-146.72;45.33
40994;BME280;26722;43.212;27.932;2023-07-20T06:08:38;54837.41;;;-146.72;45.38
40994;BME280;26722;43.212;27.932;2023-07-20T06:11:03;54820.53;;;-146.72;45.05
40994;BME280;26722;43.212;27.932;2023-07-20T06:13:29;54816.31;;;-146.72;44.60
40994;BME280;26722;43.212;27.932;2023-07-20T06:15:54;54820.53;;;-146.72;43.83
40994;BME280;26722;43.212;27.932;2023-07-20T06:18:20;54828.97;;;-146.72;43.71
40994;BME280;26722;43.212;27.932;2023-07-20T06:20:50;54824.75;;;-146.72;43.54
40994;BME280;26722;43.212;27.932;2023-07-20T06:23:16;54820.53;;;-146.72;43.46
40994;BME280;26722;43.212;27.932;2023-07-20T06:25:41;54805.75;;;-146.72;43.09
40994;BME280;26722;43.212;27.932;2023-07-20T06:28:06;54816.31;;;-146.72;43.46
40994;BME280;26722;43.212;27.932;2023-07-20T06:30:33;54828.97;;;-146.72;43.62
40994;BME280;26722;43.212;27.932;2023-07-20T06:32:58;54828.97;;;-146.72;43.97
40994;BME280;26722;43.212;27.932;2023-07-20T06:35:25;54828.97;;;-146.72;44.82
40994;BME280;26722;43.212;27.932;2023-07-20T06:37:50;54826.88;;;-146.72;45.57
40994;BME280;26722;43.212;27.932;2023-07-20T06:40:15;54826.88;;;-146.72;45.81
40994;BME280;26722;43.212;27.932;2023-07-20T06:42:40;54833.19;;;-146.72;42.69
40994;BME280;26722;43.212;27.932;2023-07-20T06:45:06;54854.31;;;-146.72;41.31
40994;BME280;26722;43.212;27.932;2023-07-20T06:47:31;54850.09;;;-146.72;41.24
40994;BME280;26722;43.212;27.932;2023-07-20T06:49:57;54850.09;;;-146.72;41.54
40994;BME280;26722;43.212;27.932;2023-07-20T06:52:22;54841.63;;;-146.72;41.95
40994;BME280;26722;43.212;27.932;2023-07-20T06:54:47;54839.53;;;-146.72;42.17
40994;BME280;26722;43.212;27.932;2023-07-20T06:57:12;54850.09;;;-146.72;41.73
40994;BME280;26722;43.212;27.932;2023-07-20T06:59:38;54845.88;;;-146.72;41.53
40994;BME280;26722;43.212;27.932;2023-07-20T07:02:03;54854.31;;;-146.72;41.63
40994;BME280;26722;43.212;27.932;2023-07-20T07:04:28;54841.63;;;-146.72;41.54
40994;BME280;26722;43.212;27.932;2023-07-20T07:06:54;54839.53;;;-146.72;41.31
40994;BME280;26722;43.212;27.932;2023-07-20T07:09:19;54841.63;;;-146.72;42.07
40994;BME280;26722;43.212;27.932;2023-07-20T07:11:45;54839.53;;;-146.72;42.16
40994;BME280;26722;43.212;27.932;2023-07-20T07:14:11;54839.53;;;-146.72;42.40
40994;BME280;26722;43.212;27.932;2023-07-20T07:16:36;54854.31;;;-146.72;42.54
40994;BME280;26722;43.212;27.932;2023-07-20T07:19:02;54835.31;;;-146.72;41.54
40994;BME280;26722;43.212;27.932;2023-07-20T07:21:28;54828.97;;;-146.72;41.97
40994;BME280;26722;43.212;27.932;2023-07-20T07:23:54;54831.09;;;-146.72;42.78
40994;BME280;26722;43.212;27.932;2023-07-20T07:26:22;54820.53;;;-146.72;42.41
40994;BME280;26722;43.212;27.932;2023-07-20T07:28:48;54820.53;;;-146.72;42.34
40994;BME280;26722;43.212;27.932;2023-07-20T07:31:13;54820.53;;;-146.72;41.47
40994;BME280;26722;43.212;27.932;2023-07-20T07:33:38;54833.19;;;-146.72;41.44
40994;BME280;26722;43.212;27.932;2023-07-20T07:36:04;54828.97;;;-146.72;42.63
40994;BME280;26722;43.212;27.932;2023-07-20T07:38:29;54826.88;;;-146.72;43.26
40994;BME280;26722;43.212;27.932;2023-07-20T07:40:54;54837.41;;;-146.72;43.46
40994;BME280;26722;43.212;27.932;2023-07-20T07:43:19;54843.75;;;-146.72;43.04
40994;BME280;26722;43.212;27.932;2023-07-20T07:45:45;54826.88;;;-146.72;42.91
40994;BME280;26722;43.212;27.932;2023-07-20T07:48:10;54828.97;;;-146.72;41.49
40994;BME280;26722;43.212;27.932;2023-07-20T07:50:37;54828.97;;;-146.72;41.45
40994;BME280;26722;43.212;27.932;2023-07-20T07:53:03;54835.31;;;-146.72;42.09
40994;BME280;26722;43.212;27.932;2023-07-20T07:55:28;54841.63;;;-146.72;42.78
40994;BME280;26722;43.212;27.932;2023-07-20T07:57:54;54847.97;;;-146.72;42.46
40994;BME280;26722;43.212;27.932;2023-07-20T08:00:19;54850.09;;;-146.72;43.40
40994;BME280;26722;43.212;27.932;2023-07-20T08:02:45;54850.09;;;-146.72;42.49
40994;BME280;26722;43.212;27.932;2023-07-20T08:05:11;54839.53;;;-146.72;42.39
40994;BME280;26722;43.212;27.932;2023-07-20T08:07:37;54845.88;;;-146.72;42.22
40994;BME280;26722;43.212;27.932;2023-07-20T08:10:02;54841.63;;;-146.72;41.96
40994;BME280;26722;43.212;27.932;2023-07-20T08:12:28;54858.53;;;-146.72;42.49
40994;BME280;26722;43.212;27.932;2023-07-20T08:14:53;54837.41;;;-146.72;41.63
40994;BME280;26722;43.212;27.932;2023-07-20T08:17:18;54854.31;;;-146.72;41.53
40994;BME280;26722;43.212;27.932;2023-07-20T08:19:45;54837.41;;;-146.72;41.49
40994;BME280;26722;43.212;27.932;2023-07-20T08:22:11;54828.97;;;-146.72;41.11
40994;BME280;26722;43.212;27.932;2023-07-20T08:24:40;54837.41;;;-146.72;41.60
40994;BME280;26722;43.212;27.932;2023-07-20T08:27:06;54850.09;;;-146.72;41.02
40994;BME280;26722;43.212;27.932;2023-07-20T08:29:31;54822.63;;;-146.72;41.03
40994;BME280;26722;43.212;27.932;2023-07-20T08:31:57;54841.63;;;-146.72;40.84
40994;BME280;26722;43.212;27.932;2023-07-20T08:34:22;54824.75;;;-146.72;40.37
40994;BME280;26722;43.212;27.932;2023-07-20T08:36:47;54828.97;;;-146.72;40.02
40994;BME280;26722;43.212;27.932;2023-07-20T08:39:13;54833.19;;;-146.72;40.71
40994;BME280;26722;43.212;27.932;2023-07-20T08:41:38;54833.19;;;-146.72;40.60
40994;BME280;26722;43.212;27.932;2023-07-20T08:44:04;54828.97;;;-146.72;40.04
40994;BME280;26722;43.212;27.932;2023-07-20T08:46:30;54818.41;;;-146.72;39.56
40994;BME280;26722;43.212;27.932;2023-07-20T08:48:55;54835.31;;;-146.72;40.13
40994;BME280;26722;43.212;27.932;2023-07-20T08:51:21;54826.88;;;-146.72;40.37
40994;BME280;26722;43.212;27.932;2023-07-20T08:53:47;54820.53;;;-146.72;40.52
40994;BME280;26722;43.212;27.932;2023-07-20T08:56:13;54831.09;;;-146.72;40.56
40994;BME280;26722;43.212;27.932;2023-07-20T08:58:39;54809.97;;;-146.72;40.28
40994;BME280;26722;43.212;27.932;2023-07-20T09:01:06;54799.41;;;-146.72;39.71
40994;BME280;26722;43.212;27.932;2023-07-20T09:03:32;54803.63;;;-146.72;38.45
40994;BME280;26722;43.212;27.932;2023-07-20T09:05:58;54790.97;;;-146.72;37.93
40994;BME280;26722;43.212;27.932;2023-07-20T09:08:23;54807.88;;;-146.72;37.53
40994;BME280;26722;43.212;27.932;2023-07-20T09:10:48;54790.97;;;-146.72;37.45
40994;BME280;26722;43.212;27.932;2023-07-20T09:13:14;54803.63;;;-146.72;36.14
40994;BME280;26722;43.212;27.932;2023-07-20T09:15:39;54795.19;;;-146.72;36.47
40994;BME280;26722;43.212;27.932;2023-07-20T09:18:10;54786.75;;;-146.72;37.13
40994;BME280;26722;43.212;27.932;2023-07-20T09:20:36;54784.63;;;-146.72;36.55
40994;BME280;26722;43.212;27.932;2023-07-20T09:23:04;54786.75;;;-146.72;35.70
40994;BME280;26722;43.212;27.932;2023-07-20T09:25:29;54778.31;;;-146.72;35.57
40994;BME280;26722;43.212;27.932;2023-07-20T09:27:55;54784.63;;;-146.72;34.48
40994;BME280;26722;43.212;27.932;2023-07-20T09:30:21;54786.75;;;-146.72;35.17
40994;BME280;26722;43.212;27.932;2023-07-20T09:32:49;54771.97;;;-146.72;34.78
40994;BME280;26722;43.212;27.932;2023-07-20T09:35:19;54774.09;;;-146.72;34.49
40994;BME280;26722;43.212;27.932;2023-07-20T09:40:17;54774.09;;;-146.72;34.08
40994;BME280;26722;43.212;27.932;2023-07-20T09:42:43;54765.63;;;-146.72;33.98
40994;BME280;26722;43.212;27.932;2023-07-20T09:45:08;54776.19;;;-146.72;33.46
40994;BME280;26722;43.212;27.932;2023-07-20T09:47:35;54769.88;;;-146.72;33.17
40994;BME280;26722;43.212;27.932;2023-07-20T09:50:01;54769.88;;;-146.72;32.89
40994;BME280;26722;43.212;27.932;2023-07-20T09:52:28;54767.75;;;-146.72;33.00
40994;BME280;26722;43.212;27.932;2023-07-20T09:54:54;54763.53;;;-146.72;32.80
40994;BME280;26722;43.212;27.932;2023-07-20T09:57:20;54769.88;;;-146.72;32.72
40994;BME280;26722;43.212;27.932;2023-07-20T09:59:46;54765.63;;;-146.72;32.66
40994;BME280;26722;43.212;27.932;2023-07-20T10:02:14;54761.41;;;-146.72;31.86
40994;BME280;26722;43.212;27.932;2023-07-20T10:04:44;54778.31;;;-146.72;32.42
40994;BME280;26722;43.212;27.932;2023-07-20T10:07:10;54769.88;;;-146.72;31.76
40994;BME280;26722;43.212;27.932;2023-07-20T10:09:39;54763.53;;;-146.72;32.08
40994;BME280;26722;43.212;27.932;2023-07-20T10:12:04;54765.63;;;-146.72;31.88
40994;BME280;26722;43.212;27.932;2023-07-20T10:14:31;54765.63;;;-146.72;31.89
40994;BME280;26722;43.212;27.932;2023-07-20T10:17:02;54765.63;;;-146.72;31.84
40994;BME280;26722;43.212;27.932;2023-07-20T10:19:37;54748.75;;;-146.72;31.58
40994;BME280;26722;43.212;27.932;2023-07-20T10:22:08;54759.31;;;-146.72;31.54
40994;BME280;26722;43.212;27.932;2023-07-20T10:24:35;54761.41;;;-146.72;31.71
40994;BME280;26722;43.212;27.932;2023-07-20T10:27:02;54752.97;;;-146.72;31.16
40994;BME280;26722;43.212;27.932;2023-07-20T10:29:27;54757.19;;;-146.72;38.09
40994;BME280;26722;43.212;27.932;2023-07-20T10:31:54;54763.53;;;-146.72;41.02
40994;BME280;26722;43.212;27.932;2023-07-20T10:34:20;54761.41;;;-146.72;44.39
40994;BME280;26722;43.212;27.932;2023-07-20T10:36:46;54761.41;;;-146.72;46.45
40994;BME280;26722;43.212;27.932;2023-07-20T10:39:25;54771.97;;;-146.72;46.76
40994;BME280;26722;43.212;27.932;2023-07-20T10:42:02;54761.41;;;-146.72;44.78
40994;BME280;26722;43.212;27.932;2023-07-20T10:44:28;54765.63;;;-146.72;43.21
40994;BME280;26722;43.212;27.932;2023-07-20T10:47:03;54761.41;;;-146.72;44.26
40994;BME280;26722;43.212;27.932;2023-07-20T10:49:33;54767.75;;;-146.72;46.58
40994;BME280;26722;43.212;27.932;2023-07-20T10:52:00;54769.88;;;-146.72;47.74
40994;BME280;26722;43.212;27.932;2023-07-20T10:56:55;54778.31;;;-146.72;45.50
40994;BME280;26722;43.212;27.932;2023-07-20T11:01:49;54776.19;;;-146.72;46.78
40994;BME280;26722;43.212;27.932;2023-07-20T11:04:14;54774.09;;;-146.72;47.32
40994;BME280;26722;43.212;27.932;2023-07-20T11:06:43;54761.41;;;-146.72;48.33
40994;BME280;26722;43.212;27.932;2023-07-20T11:09:09;54778.31;;;-146.72;49.05
40994;BME280;26722;43.212;27.932;2023-07-20T11:11:44;54769.88;;;-146.72;48.31
40994;BME280;26722;43.212;27.932;2023-07-20T11:14:10;54778.31;;;-146.72;48.06
40994;BME280;26722;43.212;27.932;2023-07-20T11:16:45;54769.88;;;-146.72;47.74
40994;BME280;26722;43.212;27.932;2023-07-20T11:19:15;54782.53;;;-146.72;47.05
40994;BME280;26722;43.212;27.932;2023-07-20T11:21:44;54782.53;;;-146.72;46.32
40994;BME280;26722;43.212;27.932;2023-07-20T11:24:09;54778.31;;;-146.72;45.69
40994;BME280;26722;43.212;27.932;2023-07-20T11:26:53;54769.88;;;-146.72;47.21
40994;BME280;26722;43.212;27.932;2023-07-20T11:29:20;54786.75;;;-146.72;48.86
40994;BME280;26722;43.212;27.932;2023-07-20T11:31:45;54784.63;;;-146.72;49.59
40994;BME280;26722;43.212;27.932;2023-07-20T11:34:12;54788.88;;;-146.72;49.68
40994;BME280;26722;43.212;27.932;2023-07-20T11:36:41;54797.31;;;-146.72;50.44
40994;BME280;26722;43.212;27.932;2023-07-20T11:39:08;54793.09;;;-146.72;50.88
40994;BME280;26722;43.212;27.932;2023-07-20T11:41:34;54790.97;;;-146.72;50.94
40994;BME280;26722;43.212;27.932;2023-07-20T11:43:59;54778.31;;;-146.72;51.45
40994;BME280;26722;43.212;27.932;2023-07-20T11:46:24;54801.53;;;-146.72;50.72
40994;BME280;26722;43.212;27.932;2023-07-20T11:48:55;54795.19;;;-146.72;51.63
40994;BME280;26722;43.212;27.932;2023-07-20T11:51:20;54788.88;;;-146.72;52.48
40994;BME280;26722;43.212;27.932;2023-07-20T11:53:45;54786.75;;;-146.72;51.21
40994;BME280;26722;43.212;27.932;2023-07-20T11:56:12;54784.63;;;-146.72;50.90
40994;BME280;26722;43.212;27.932;2023-07-20T11:58:41;54795.19;;;-146.72;51.45
40994;BME280;26722;43.212;27.932;2023-07-20T12:01:06;54790.97;;;-146.72;51.72
40994;BME280;26722;43.212;27.932;2023-07-20T12:03:32;54803.63;;;-146.72;50.77
40994;BME280;26722;43.212;27.932;2023-07-20T12:06:05;54784.63;;;-146.72;50.90
40994;BME280;26722;43.212;27.932;2023-07-20T12:08:31;54776.19;;;-146.72;51.07
40994;BME280;26722;43.212;27.932;2023-07-20T12:10:56;54793.09;;;-146.72;51.32
40994;BME280;26722;43.212;27.932;2023-07-20T12:13:21;54790.97;;;-146.72;51.66
40994;BME280;26722;43.212;27.932;2023-07-20T12:15:48;54784.63;;;-146.72;51.88
40994;BME280;26722;43.212;27.932;2023-07-20T12:18:13;54795.19;;;-146.72;51.92
40994;BME280;26722;43.212;27.932;2023-07-20T12:20:38;54784.63;;;-146.72;52.35
40994;BME280;26722;43.212;27.932;2023-07-20T12:23:13;54782.53;;;-146.72;51.29
40994;BME280;26722;43.212;27.932;2023-07-20T12:25:40;54778.31;;;-146.72;50.20
40994;BME280;26722;43.212;27.932;2023-07-20T12:28:09;54786.75;;;-146.72;49.23
40994;BME280;26722;43.212;27.932;2023-07-20T12:30:35;54782.53;;;-146.72;48.73
40994;BME280;26722;43.212;27.932;2023-07-20T12:33:01;54786.75;;;-146.72;48.67
40994;BME280;26722;43.212;27.932;2023-07-20T12:35:27;54784.63;;;-146.72;49.18
40994;BME280;26722;43.212;27.932;2023-07-20T12:37:53;54788.88;;;-146.72;49.32
40994;BME280;26722;43.212;27.932;2023-07-20T12:40:18;54788.88;;;-146.72;49.11
40994;BME280;26722;43.212;27.932;2023-07-20T12:42:43;54778.31;;;-146.72;48.48